Time;durP1;ratioP1;P1;durP2;ratioP2;P2;SDS_P1;SDS_P2;PMS_P1;PMS_P2;Temp;Humidity;BMP_temperature;BMP_pressure;BME280_temperature;BME280_humidity;BME280_pressure;Samples;Min_cycle;Max_cycle;Signal;HPM_P1;HPM_P2
2023/03/11 00:00:37;;;;;;;38.23;20.17;;;;;;;0.26;100.00;98247.91;5033842;28;20048;-79
2023/03/11 00:03:06;;;;;;;40.80;20.07;;;;;;;0.36;100.00;98259.00;5011770;28;20056;-79
2023/03/11 00:05:36;;;;;;;39.57;19.97;;;;;;;0.32;100.00;98264.25;5015153;28;20045;-79
2023/03/11 00:08:03;;;;;;;36.57;18.77;;;;;;;0.20;100.00;98270.53;5027445;28;20044;-79
2023/03/11 00:10:36;;;;;;;36.40;18.23;;;;;;;0.30;100.00;98273.81;5030511;28;20247;-79
2023/03/11 00:13:04;;;;;;;33.97;18.13;;;;;;;0.22;100.00;98279.16;5030877;28;20312;-79
2023/03/11 00:15:32;;;;;;;37.17;20.53;;;;;;;0.27;100.00;98287.72;5016524;28;20041;-79
2023/03/11 00:17:58;;;;;;;42.03;19.80;;;;;;;0.24;100.00;98291.22;5017201;28;20047;-79
2023/03/11 00:20:31;;;;;;;34.30;18.90;;;;;;;0.21;100.00;98304.25;5032567;28;20068;-79
2023/03/11 00:23:01;;;;;;;38.37;20.07;;;;;;;0.26;100.00;98309.38;5050472;28;20774;-80
2023/03/11 00:25:31;;;;;;;38.73;18.90;;;;;;;0.22;100.00;98305.09;5007562;28;20050;-79
2023/03/11 00:27:58;;;;;;;35.77;19.10;;;;;;;0.27;100.00;98322.34;5018133;28;21499;-79
2023/03/11 00:30:26;;;;;;;36.60;18.60;;;;;;;0.21;100.00;98325.03;5028333;28;20040;-79
2023/03/11 00:32:55;;;;;;;41.37;20.07;;;;;;;0.08;100.00;98333.03;5011844;28;20084;-79
2023/03/11 00:35:24;;;;;;;42.17;20.03;;;;;;;0.11;100.00;98338.19;5022665;28;20036;-79
2023/03/11 00:37:54;;;;;;;35.30;18.03;;;;;;;0.18;100.00;98351.06;5013240;28;20421;-79
2023/03/11 00:40:22;;;;;;;35.03;18.23;;;;;;;0.24;100.00;98356.13;5022143;28;20045;-79
2023/03/11 00:42:49;;;;;;;32.30;17.67;;;;;;;0.10;100.00;98359.84;5017304;28;20136;-79
2023/03/11 00:45:18;;;;;;;36.83;17.73;;;;;;;0.17;100.00;98364.91;5014209;28;20371;-81
2023/03/11 00:47:45;;;;;;;32.93;17.57;;;;;;;0.20;100.00;98372.66;5015095;28;20695;-80
2023/03/11 00:50:17;;;;;;;30.73;16.13;;;;;;;0.22;100.00;98375.22;5032973;28;20049;-79
2023/03/11 00:52:45;;;;;;;28.17;15.03;;;;;;;0.11;100.00;98382.31;5044613;28;20045;-79
2023/03/11 00:55:18;;;;;;;30.47;14.50;;;;;;;0.16;100.00;98385.69;5004896;28;20060;-80
2023/03/11 00:57:44;;;;;;;26.80;14.80;;;;;;;0.18;100.00;98387.41;5036598;28;20727;-80
2023/03/11 01:00:22;;;;;;;26.83;14.70;;;;;;;0.17;100.00;98393.47;5012219;28;20733;-81
2023/03/11 01:02:51;;;;;;;27.63;13.57;;;;;;;0.29;100.00;98400.22;5018062;28;20057;-82
2023/03/11 01:05:19;;;;;;;25.37;13.80;;;;;;;0.20;100.00;98397.75;5034402;28;20041;-82
2023/03/11 01:07:49;;;;;;;28.47;14.23;;;;;;;0.30;100.00;98398.47;5032683;28;20048;-81
2023/03/11 01:10:19;;;;;;;23.50;12.27;;;;;;;0.25;100.00;98406.31;5017213;28;20135;-81
2023/03/11 01:12:48;;;;;;;22.63;12.07;;;;;;;0.21;100.00;98408.13;5032346;28;20041;-80
2023/03/11 01:15:21;;;;;;;24.00;12.47;;;;;;;0.21;100.00;98404.66;5033132;28;20033;-80
2023/03/11 01:17:53;;;;;;;27.83;13.10;;;;;;;0.20;100.00;98419.38;4998877;28;20037;-81
2023/03/11 01:20:20;;;;;;;21.60;12.13;;;;;;;0.19;100.00;98427.22;5019554;28;20048;-80
2023/03/11 01:22:49;;;;;;;18.07;10.07;;;;;;;0.12;100.00;98426.44;5016724;28;20053;-80
2023/03/11 01:25:18;;;;;;;15.63;8.20;;;;;;;0.17;100.00;98432.44;5027265;28;20072;-79
2023/03/11 01:27:46;;;;;;;15.40;9.57;;;;;;;0.00;100.00;98444.78;5026381;28;20047;-80
2023/03/11 01:30:18;;;;;;;18.13;9.40;;;;;;;0.13;100.00;98450.66;5035176;28;20061;-80
2023/03/11 01:32:46;;;;;;;14.97;8.43;;;;;;;0.23;100.00;98452.22;5002009;28;20052;-80
2023/03/11 01:35:14;;;;;;;15.23;8.10;;;;;;;0.19;100.00;98466.16;5021234;28;20422;-81
2023/03/11 01:37:42;;;;;;;13.87;7.53;;;;;;;0.16;100.00;98468.78;5034418;28;20178;-81
2023/03/11 01:40:17;;;;;;;13.53;7.70;;;;;;;0.10;100.00;98468.88;5024579;28;20043;-82
2023/03/11 01:42:44;;;;;;;10.53;5.97;;;;;;;0.19;100.00;98480.00;5031787;28;20033;-81
2023/03/11 01:45:38;;;;;;;8.00;5.27;;;;;;;0.13;100.00;98487.00;5040267;28;20490;-83
2023/03/11 01:48:09;;;;;;;7.97;4.80;;;;;;;0.13;100.00;98494.78;5033627;28;20048;-81
2023/03/11 01:50:40;;;;;;;7.97;4.50;;;;;;;0.18;100.00;98504.25;5017702;28;20573;-83
2023/03/11 01:53:07;;;;;;;7.73;4.57;;;;;;;0.19;100.00;98513.75;4994578;28;20499;-82
2023/03/11 01:55:36;;;;;;;5.80;3.73;;;;;;;0.18;100.00;98505.97;5032091;28;20098;-83
2023/03/11 01:58:13;;;;;;;5.30;3.10;;;;;;;0.20;100.00;98517.19;5032968;28;20041;-82
2023/03/11 02:00:41;;;;;;;5.80;3.23;;;;;;;0.22;100.00;98521.50;4999457;28;20045;-84
2023/03/11 02:03:10;;;;;;;5.30;3.33;;;;;;;0.18;100.00;98525.03;5034198;28;20071;-85
2023/03/11 02:05:38;;;;;;;4.30;2.60;;;;;;;0.16;100.00;98533.69;5017549;28;20045;-85
2023/03/11 02:08:06;;;;;;;5.13;2.63;;;;;;;0.10;100.00;98539.84;5018766;28;20490;-85
2023/03/11 02:10:35;;;;;;;4.10;2.60;;;;;;;0.10;100.00;98549.38;5018466;28;20051;-85
2023/03/11 02:13:05;;;;;;;4.83;2.90;;;;;;;0.03;100.00;98545.13;5015779;28;20037;-84
2023/03/11 02:15:32;;;;;;;5.63;3.53;;;;;;;0.10;100.00;98558.00;5016575;28;20038;-85
2023/03/11 02:18:02;;;;;;;4.70;2.53;;;;;;;0.14;100.00;98561.41;5003548;28;20037;-84
2023/03/11 02:20:53;;;;;;;4.20;2.40;;;;;;;0.16;100.00;98570.91;5015400;28;20479;-85
2023/03/11 02:23:25;;;;;;;4.70;3.20;;;;;;;0.19;100.00;98585.59;5004134;28;20041;-86
2023/03/11 02:25:54;;;;;;;;;;;;;;;0.22;100.00;98585.56;5024044;28;20458;-86
2023/03/11 02:28:21;;;;;;;4.77;3.17;;;;;;;0.20;100.00;98592.50;5047342;28;20278;-85
2023/03/11 02:30:49;;;;;;;4.93;3.43;;;;;;;0.11;100.00;98603.84;5027079;28;20044;-84
2023/03/11 02:33:20;;;;;;;6.50;3.23;;;;;;;0.14;100.00;98608.16;5018526;28;20037;-85
2023/03/11 02:35:47;;;;;;;6.00;3.43;;;;;;;0.19;100.00;98612.44;4999646;28;20037;-84
2023/03/11 02:38:16;;;;;;;4.47;2.83;;;;;;;0.16;100.00;98620.22;5011336;28;20537;-85
2023/03/11 02:40:48;;;;;;;4.67;2.53;;;;;;;0.11;100.00;98635.00;5033262;28;20098;-84
2023/03/11 02:43:18;;;;;;;4.40;2.83;;;;;;;0.20;100.00;98640.09;5029020;28;20037;-85
2023/03/11 02:45:45;;;;;;;4.63;2.80;;;;;;;0.26;100.00;98652.16;5000000;28;20029;-85
2023/03/11 02:48:17;;;;;;;4.10;2.60;;;;;;;0.22;100.00;98664.31;5032645;28;20049;-85
2023/03/11 02:50:47;;;;;;;4.70;3.07;;;;;;;0.23;100.00;98680.75;5025618;28;20068;-86
2023/03/11 02:53:15;;;;;;;5.40;3.30;;;;;;;0.19;100.00;98685.13;5015634;28;20041;-85
2023/03/11 02:55:42;;;;;;;3.90;2.67;;;;;;;0.17;100.00;98697.28;5031685;28;20037;-86
2023/03/11 02:58:10;;;;;;;5.20;3.10;;;;;;;0.17;100.00;98706.78;5016133;28;20041;-85
2023/03/11 03:00:37;;;;;;;4.43;3.00;;;;;;;0.26;100.00;98709.31;5019760;28;20216;-85
2023/03/11 03:03:05;;;;;;;5.40;3.37;;;;;;;0.20;100.00;98718.00;5012682;28;20092;-85
2023/03/11 03:05:32;;;;;;;5.40;3.27;;;;;;;0.24;100.00;98718.81;5030731;28;20044;-86
2023/03/11 03:07:59;;;;;;;4.77;3.40;;;;;;;0.08;100.00;98723.31;5000375;28;20048;-85
2023/03/11 03:10:25;;;;;;;5.07;3.33;;;;;;;0.17;100.00;98733.63;5019274;28;20080;-85
2023/03/11 03:12:52;;;;;;;5.70;3.30;;;;;;;0.27;100.00;98740.44;5024007;28;20635;-85
2023/03/11 03:15:19;;;;;;;5.43;3.20;;;;;;;0.26;100.00;98743.06;5002595;28;20465;-85
2023/03/11 03:17:46;;;;;;;5.67;3.70;;;;;;;0.27;100.00;98760.38;5017837;28;20036;-85
2023/03/11 03:20:13;;;;;;;5.73;2.83;;;;;;;0.17;100.00;98769.09;5040172;28;20441;-85
2023/03/11 03:22:43;;;;;;;5.03;3.67;;;;;;;0.17;100.00;98784.66;5018336;28;20045;-84
2023/03/11 03:25:10;;;;;;;6.87;3.63;;;;;;;0.21;100.00;98787.25;5033837;28;20091;-82
2023/03/11 03:27:37;;;;;;;6.67;3.50;;;;;;;0.26;100.00;98792.41;5002882;28;20056;-84
2023/03/11 03:30:06;;;;;;;5.73;3.70;;;;;;;0.21;100.00;98804.56;5032362;28;20406;-82
2023/03/11 03:32:33;;;;;;;6.47;3.53;;;;;;;0.23;100.00;98818.38;5033113;28;20098;-83
2023/03/11 03:35:00;;;;;;;9.40;4.27;;;;;;;0.31;100.00;98824.38;5019848;28;20486;-84
2023/03/11 03:37:27;;;;;;;7.63;4.47;;;;;;;0.22;100.00;98837.44;5047903;28;20095;-83
2023/03/11 03:39:54;;;;;;;7.50;4.40;;;;;;;0.14;100.00;98837.50;5053966;22;20033;-81
2023/03/11 03:42:23;;;;;;;8.93;5.03;;;;;;;0.16;100.00;98848.72;5053081;28;20032;-82
2023/03/11 03:44:51;;;;;;;7.87;4.97;;;;;;;0.19;100.00;98853.91;5010762;28;20050;-81
2023/03/11 03:47:19;;;;;;;9.13;4.93;;;;;;;0.23;100.00;98870.31;5035161;28;20045;-80
2023/03/11 03:49:45;;;;;;;7.97;4.33;;;;;;;0.23;100.00;98866.00;5013788;28;20638;-80
2023/03/11 03:52:12;;;;;;;7.77;4.13;;;;;;;0.21;100.00;98879.88;5016473;28;20493;-80
2023/03/11 03:54:39;;;;;;;8.47;5.03;;;;;;;0.21;100.00;98879.88;5014386;28;20037;-80
2023/03/11 03:57:05;;;;;;;7.77;4.70;;;;;;;0.26;100.00;98898.91;5023364;28;20335;-81
2023/03/11 03:59:32;;;;;;;8.50;4.57;;;;;;;0.27;100.00;98905.81;5000259;28;20033;-80
2023/03/11 04:01:59;;;;;;;9.27;4.00;;;;;;;0.28;100.00;98908.38;5015674;28;20501;-80
2023/03/11 04:04:26;;;;;;;7.13;4.17;;;;;;;0.14;100.00;98910.22;5000914;28;20049;-80
2023/03/11 04:06:52;;;;;;;7.40;4.13;;;;;;;0.19;100.00;98928.38;5015572;28;20049;-81
2023/03/11 04:09:19;;;;;;;8.03;4.23;;;;;;;0.16;100.00;98938.75;5024061;28;20132;-81
2023/03/11 04:11:46;;;;;;;6.70;3.50;;;;;;;0.15;100.00;98937.03;5013945;28;20469;-81
2023/03/11 04:14:12;;;;;;;7.43;4.00;;;;;;;0.17;100.00;98935.28;5031518;28;20497;-81
2023/03/11 04:16:39;;;;;;;7.83;4.00;;;;;;;0.23;100.00;98946.50;4996654;28;20043;-81
2023/03/11 04:19:06;;;;;;;5.97;3.63;;;;;;;0.24;100.00;98949.97;5034006;28;20033;-81
2023/03/11 04:21:33;;;;;;;7.27;3.60;;;;;;;0.14;100.00;98959.53;5029895;28;20472;-81
2023/03/11 04:23:59;;;;;;;6.77;3.83;;;;;;;0.20;100.00;98971.63;4996338;28;20042;-82
2023/03/11 04:26:27;;;;;;;5.30;3.63;;;;;;;0.13;100.00;98956.97;4990752;28;20133;-81
2023/03/11 04:28:54;;;;;;;5.73;3.60;;;;;;;0.20;100.00;98964.72;5028698;28;20036;-80
2023/03/11 04:31:20;;;;;;;6.27;3.50;;;;;;;0.15;100.00;98973.38;5035305;28;20045;-81
2023/03/11 04:33:47;;;;;;;6.50;3.70;;;;;;;0.16;100.00;98983.75;5021894;28;20045;-82
2023/03/11 04:36:14;;;;;;;6.67;3.10;;;;;;;0.20;100.00;98988.09;5003077;28;20088;-82
2023/03/11 04:38:40;;;;;;;5.73;3.20;;;;;;;0.09;100.00;98991.63;4995397;28;20041;-81
2023/03/11 04:41:07;;;;;;;7.70;3.70;;;;;;;0.18;100.00;99007.16;5005541;28;20042;-80
2023/03/11 04:43:34;;;;;;;6.20;3.47;;;;;;;0.17;100.00;99014.06;5010423;28;20064;-81
2023/03/11 04:46:01;;;;;;;6.57;3.73;;;;;;;0.22;100.00;99019.22;5019610;28;20064;-80
2023/03/11 04:48:27;;;;;;;5.93;3.27;;;;;;;0.07;100.00;99033.16;5018273;28;20033;-81
2023/03/11 04:50:54;;;;;;;5.27;3.47;;;;;;;0.01;100.00;99027.13;5034876;28;20040;-81
2023/03/11 04:53:22;;;;;;;7.30;3.70;;;;;;;0.17;100.00;99039.16;4999096;28;20069;-80
2023/03/11 04:55:49;;;;;;;5.27;3.03;;;;;;;0.25;100.00;99038.28;5014905;28;20643;-80
2023/03/11 04:58:16;;;;;;;4.07;2.67;;;;;;;0.12;100.00;99046.13;5010131;28;20577;-81
2023/03/11 05:00:42;;;;;;;5.50;3.43;;;;;;;0.16;100.00;99053.00;5033167;28;20051;-81
2023/03/11 05:03:09;;;;;;;5.63;3.20;;;;;;;0.13;100.00;99059.09;5025494;28;20425;-80
2023/03/11 05:05:36;;;;;;;9.67;3.60;;;;;;;0.19;100.00;99066.00;5015208;28;20445;-81
2023/03/11 05:08:03;;;;;;;5.80;3.93;;;;;;;0.18;100.00;99080.72;5006226;28;20040;-81
2023/03/11 05:10:30;;;;;;;7.07;3.93;;;;;;;0.14;100.00;99080.72;5021767;28;20047;-80
2023/03/11 05:12:57;;;;;;;6.43;3.70;;;;;;;0.05;100.00;99086.81;5023577;28;20111;-81
2023/03/11 05:15:24;;;;;;;7.23;4.60;;;;;;;0.12;100.00;99098.06;5032295;28;20041;-81
2023/03/11 05:17:51;;;;;;;6.70;4.07;;;;;;;0.20;100.00;99107.53;5022930;28;20052;-80
2023/03/11 05:20:17;;;;;;;6.97;4.23;;;;;;;0.16;100.00;99113.59;5019241;28;20053;-80
2023/03/11 05:22:44;;;;;;;6.77;3.57;;;;;;;0.01;100.00;99125.78;5023135;28;20033;-81
2023/03/11 05:25:11;;;;;;;6.70;4.03;;;;;;;0.05;100.00;99127.50;5020654;28;20051;-80
2023/03/11 05:27:37;;;;;;;6.77;3.80;;;;;;;0.20;100.00;99146.50;5009747;28;20426;-80
2023/03/11 05:30:05;;;;;;;5.60;3.70;;;;;;;0.13;100.00;99138.72;5017984;28;20047;-81
2023/03/11 05:32:31;;;;;;;5.97;3.97;;;;;;;0.16;100.00;99156.88;5013457;28;20136;-80
2023/03/11 05:34:58;;;;;;;5.00;3.60;;;;;;;0.18;100.00;99147.38;5028601;28;20045;-80
2023/03/11 05:37:24;;;;;;;6.80;3.80;;;;;;;0.12;100.00;99153.44;5027399;28;20037;-80
2023/03/11 05:39:51;;;;;;;6.87;3.70;;;;;;;0.10;100.00;99165.56;5018555;28;20132;-81
2023/03/11 05:42:18;;;;;;;7.50;4.30;;;;;;;0.22;100.00;99165.53;5018457;28;20040;-81
2023/03/11 05:44:46;;;;;;;5.53;3.80;;;;;;;0.21;100.00;99179.38;5036187;28;20132;-80
2023/03/11 05:47:15;;;;;;;8.80;4.63;;;;;;;0.24;100.00;99176.78;5007819;28;20049;-80
2023/03/11 05:49:42;;;;;;;7.07;4.00;;;;;;;0.14;100.00;99179.41;4999947;28;20049;-81
2023/03/11 05:52:09;;;;;;;6.60;3.90;;;;;;;0.05;100.00;99195.00;5009901;28;20032;-81
2023/03/11 05:54:35;;;;;;;6.33;4.20;;;;;;;0.20;100.00;99201.03;5029409;28;20042;-81
2023/03/11 05:57:02;;;;;;;7.10;3.80;;;;;;;0.14;100.00;99201.03;5007352;28;20033;-80
2023/03/11 05:59:31;;;;;;;7.60;4.63;;;;;;;0.06;100.00;99213.19;5020942;28;20040;-80
2023/03/11 06:01:57;;;;;;;7.20;4.40;;;;;;;0.19;100.00;99214.03;5018098;28;20072;-80
2023/03/11 06:04:24;;;;;;;7.53;4.70;;;;;;;0.18;100.00;99220.97;5027471;28;20120;-81
2023/03/11 06:06:51;;;;;;;7.03;4.17;;;;;;;0.19;100.00;99230.47;4998856;28;20033;-79
2023/03/11 06:09:18;;;;;;;7.43;3.77;;;;;;;0.28;100.00;99230.47;5018499;28;20040;-81
2023/03/11 06:11:44;;;;;;;8.33;4.40;;;;;;;0.31;100.00;99244.28;5019072;28;20525;-81
2023/03/11 06:14:13;;;;;;;7.10;4.17;;;;;;;0.38;100.00;99249.47;5005005;28;20063;-80
2023/03/11 06:16:40;;;;;;;8.83;4.33;;;;;;;0.35;100.00;99248.63;5006904;28;20044;-80
2023/03/11 06:19:07;;;;;;;7.17;4.47;;;;;;;0.32;100.00;99246.03;5027976;28;20132;-82
2023/03/11 06:21:34;;;;;;;5.93;4.17;;;;;;;0.33;100.00;99259.00;5021107;28;20047;-80
2023/03/11 06:24:00;;;;;;;8.07;3.93;;;;;;;0.26;100.00;99254.72;4995957;28;20414;-81
2023/03/11 06:26:27;;;;;;;5.73;3.80;;;;;;;0.24;100.00;99249.50;5021397;28;20041;-81
2023/03/11 06:28:54;;;;;;;6.57;3.67;;;;;;;0.22;100.00;99260.75;5012216;28;20037;-80
2023/03/11 06:31:25;;;;;;;8.40;3.80;;;;;;;0.21;100.00;99264.22;5017805;28;20033;-80
2023/03/11 06:33:54;;;;;;;6.93;3.50;;;;;;;0.18;100.00;99274.63;5003960;28;20037;-81
2023/03/11 06:36:21;;;;;;;8.73;3.53;;;;;;;0.14;100.00;99283.28;4995421;28;20045;-82
2023/03/11 06:38:50;;;;;;;7.10;4.43;;;;;;;0.19;100.00;99287.63;5015410;28;20044;-80
2023/03/11 06:41:17;;;;;;;6.67;3.50;;;;;;;0.14;100.00;99298.88;5002977;28;20041;-81
2023/03/11 06:43:44;;;;;;;6.63;3.93;;;;;;;0.18;100.00;99304.06;5033836;28;20087;-82
2023/03/11 06:46:19;;;;;;;5.70;3.37;;;;;;;0.21;100.00;99316.19;5013991;28;20037;-81
2023/03/11 06:48:46;;;;;;;6.30;3.27;;;;;;;0.27;100.00;99331.78;5022381;28;20098;-82
2023/03/11 06:51:13;;;;;;;6.57;3.50;;;;;;;0.30;100.00;99330.88;5030971;28;20040;-80
2023/03/11 06:53:40;;;;;;;5.23;2.97;;;;;;;0.31;100.00;99337.81;4996116;28;20048;-82
2023/03/11 06:56:08;;;;;;;3.67;2.43;;;;;;;0.25;100.00;99339.56;5003422;28;20041;-81
2023/03/11 06:58:37;;;;;;;5.67;2.83;;;;;;;0.38;100.00;99355.13;5022784;28;20084;-80
2023/03/11 07:01:04;;;;;;;5.30;3.10;;;;;;;0.46;100.00;99362.06;5011480;28;20051;-82
2023/03/11 07:03:31;;;;;;;4.53;3.40;;;;;;;0.53;100.00;99355.13;5003682;28;20062;-80
2023/03/11 07:05:58;;;;;;;4.80;3.20;;;;;;;0.57;100.00;99364.63;5028799;28;20063;-80
2023/03/11 07:08:26;;;;;;;5.93;3.10;;;;;;;0.50;100.00;99374.16;4993630;28;20052;-81
2023/03/11 07:11:03;;;;;;;4.83;2.70;;;;;;;0.56;100.00;99384.56;5008388;28;20056;-81
2023/03/11 07:13:29;;;;;;;5.87;3.40;;;;;;;0.59;100.00;99401.00;5033291;28;20048;-81
2023/03/11 07:16:04;;;;;;;5.33;3.03;;;;;;;0.64;100.00;99399.28;4997941;28;20406;-80
2023/03/11 07:18:30;;;;;;;;;;;;;;;0.57;100.00;99401.88;5031004;28;20042;-81
2023/03/11 07:20:57;;;;;;;5.70;3.43;;;;;;;0.47;100.00;99407.09;4997837;28;19924;-80
2023/03/11 07:23:24;;;;;;;4.83;3.40;;;;;;;0.47;100.00;99423.53;4997694;28;20037;-81
2023/03/11 07:25:51;;;;;;;5.83;3.50;;;;;;;0.44;100.00;99420.97;5036827;28;20377;-80
2023/03/11 07:28:18;;;;;;;8.57;3.40;;;;;;;0.33;100.00;99427.84;5040144;28;20039;-79
2023/03/11 07:30:47;;;;;;;6.23;4.00;;;;;;;0.23;100.00;99437.38;5036613;28;20497;-80
2023/03/11 07:33:14;;;;;;;6.30;3.30;;;;;;;0.16;100.00;99447.75;5015406;28;20059;-79
2023/03/11 07:35:41;;;;;;;6.10;3.80;;;;;;;0.29;100.00;99441.72;4997142;28;20049;-80
2023/03/11 07:38:08;;;;;;;6.63;3.60;;;;;;;0.41;100.00;99451.25;5001048;28;20092;-79
2023/03/11 07:40:34;;;;;;;7.27;3.67;;;;;;;0.47;100.00;99459.06;5002536;28;20145;-79
2023/03/11 07:43:01;;;;;;;5.40;3.60;;;;;;;0.58;100.00;99459.91;4998031;28;20037;-79
2023/03/11 07:45:28;;;;;;;6.57;3.70;;;;;;;0.60;100.00;99457.34;5010367;28;20043;-80
2023/03/11 07:47:54;;;;;;;5.47;3.63;;;;;;;0.75;100.00;99459.91;5049829;28;20036;-79
2023/03/11 07:50:21;;;;;;;5.80;3.70;;;;;;;0.89;100.00;99471.19;5021329;28;20494;-79
2023/03/11 07:52:48;;;;;;;7.23;3.40;;;;;;;1.00;100.00;99465.97;5016130;28;20047;-78
2023/03/11 07:55:15;;;;;;;8.90;5.20;;;;;;;0.98;100.00;99473.78;5033904;28;20032;-78
2023/03/11 07:57:41;;;;;;;9.00;6.60;;;;;;;1.00;100.00;99482.44;5022222;28;20044;-78
2023/03/11 08:00:09;;;;;;;6.93;4.87;;;;;;;0.97;100.00;99485.06;5043963;28;20492;-78
2023/03/11 08:02:36;;;;;;;10.00;8.63;;;;;;;1.06;100.00;99500.66;5042606;28;20041;-79
2023/03/11 08:05:02;;;;;;;7.60;6.10;;;;;;;0.90;100.00;99511.06;5021844;28;20442;-80
2023/03/11 08:07:31;;;;;;;6.57;3.90;;;;;;;0.97;100.00;99513.66;5019688;28;20033;-80
2023/03/11 08:09:58;;;;;;;6.67;4.17;;;;;;;1.13;100.00;99517.13;5036416;28;20498;-77
2023/03/11 08:12:25;;;;;;;8.00;4.50;;;;;;;1.16;100.00;99516.25;5034981;28;20052;-78
2023/03/11 08:14:51;;;;;;;6.50;3.67;;;;;;;1.13;100.00;99518.00;5038587;28;20505;-80
2023/03/11 08:17:18;;;;;;;29.30;26.10;;;;;;;1.10;100.00;99525.81;5039106;28;20033;-78
2023/03/11 08:19:45;;;;;;;32.87;23.20;;;;;;;1.12;100.00;99528.41;5040266;28;20037;-79
2023/03/11 08:22:11;;;;;;;199.33;164.97;;;;;;;0.97;100.00;99528.41;5000832;28;20048;-79
2023/03/11 08:24:38;;;;;;;14.30;11.87;;;;;;;1.10;100.00;99537.94;5030996;28;20045;-80
2023/03/11 08:27:05;;;;;;;7.17;4.67;;;;;;;1.20;100.00;99544.00;5023479;28;20060;-79
2023/03/11 08:29:32;;;;;;;9.27;6.63;;;;;;;0.87;100.00;99558.75;5032562;28;20030;-80
2023/03/11 08:31:59;;;;;;;9.33;5.60;;;;;;;1.09;100.00;99565.69;5024033;28;20386;-80
2023/03/11 08:34:26;;;;;;;6.10;3.93;;;;;;;1.24;100.00;99570.00;5039165;28;20036;-79
2023/03/11 08:36:53;;;;;;;6.10;3.73;;;;;;;1.20;100.00;99570.88;5036935;28;20045;-81
2023/03/11 08:39:19;;;;;;;13.90;9.03;;;;;;;1.34;100.00;99570.88;5040021;28;20041;-81
2023/03/11 08:41:46;;;;;;;5.23;4.10;;;;;;;1.56;100.00;99582.13;5045286;28;20041;-80
2023/03/11 08:44:13;;;;;;;5.20;3.20;;;;;;;1.69;100.00;99576.91;5072994;28;20087;-80
2023/03/11 08:46:39;;;;;;;4.90;3.00;;;;;;;1.76;100.00;99593.38;5037595;28;20489;-81
2023/03/11 08:49:06;;;;;;;5.27;3.20;;;;;;;1.40;100.00;99594.28;5025606;28;20109;-80
2023/03/11 08:51:34;;;;;;;5.17;3.20;;;;;;;1.48;100.00;99596.88;5074312;28;20036;-81
2023/03/11 08:54:01;;;;;;;7.23;3.10;;;;;;;1.48;100.00;99602.97;5040851;28;20053;-81
2023/03/11 08:56:28;;;;;;;5.30;3.00;;;;;;;1.40;100.00;99608.16;5038776;28;20029;-81
2023/03/11 08:58:54;;;;;;;6.00;3.30;;;;;;;1.34;100.00;99615.09;5027253;28;20128;-81
2023/03/11 09:01:22;;;;;;;5.70;3.40;;;;;;;1.42;100.00;99618.56;4996431;28;20041;-81
2023/03/11 09:03:49;;;;;;;5.87;3.37;;;;;;;1.38;100.00;99625.53;5019799;28;20047;-80
2023/03/11 09:06:16;;;;;;;4.67;3.40;;;;;;;1.54;100.00;99633.34;5021513;28;20044;-80
2023/03/11 09:08:44;;;;;;;5.77;3.20;;;;;;;1.71;100.00;99631.56;5035209;28;20041;-81
2023/03/11 09:11:18;;;;;;;5.73;3.50;;;;;;;1.98;100.00;99638.47;5002447;28;20808;-81
2023/03/11 09:13:59;;;;;;;4.77;2.90;;;;;;;1.65;100.00;99645.47;5010729;28;20058;-81
2023/03/11 09:16:34;;;;;;;5.03;3.03;;;;;;;2.19;100.00;99648.00;5008297;28;20045;-80
2023/03/11 09:19:05;;;;;;;4.50;3.23;;;;;;;2.60;100.00;99641.72;5040499;28;20051;-80
2023/03/11 09:21:33;;;;;;;4.37;2.60;;;;;;;2.46;100.00;99658.31;5020012;28;20155;-81
2023/03/11 09:24:00;;;;;;;5.53;3.23;;;;;;;2.37;100.00;99652.28;5023016;28;20041;-82
2023/03/11 09:26:27;;;;;;;6.70;2.80;;;;;;;2.41;100.00;99664.41;4998583;28;20045;-82
2023/03/11 09:28:53;;;;;;;5.77;3.00;;;;;;;2.34;100.00;99675.72;5032086;28;20123;-83
2023/03/11 09:31:20;;;;;;;3.87;2.37;;;;;;;2.45;100.00;99673.97;5008508;28;20080;-82
2023/03/11 09:33:48;;;;;;;4.33;2.83;;;;;;;2.87;100.00;99679.88;5005861;28;20628;-82
2023/03/11 09:36:17;;;;;;;6.13;3.30;;;;;;;3.08;100.00;99682.34;5036809;28;20049;-81
2023/03/11 09:38:44;;;;;;;4.53;2.50;;;;;;;3.28;100.00;99680.50;4999221;28;20044;-83
2023/03/11 09:41:16;;;;;;;4.83;3.10;;;;;;;3.48;99.18;99682.97;5038462;28;20060;-82
2023/03/11 09:44:04;;;;;;;3.50;2.70;;;;;;;4.03;99.75;99689.44;5075224;28;20166;-83
2023/03/11 09:46:37;;;;;;;3.60;2.60;;;;;;;3.50;98.11;99690.78;5027305;28;20037;-83
2023/03/11 09:49:11;;;;;;;4.13;2.80;;;;;;;3.89;91.76;99693.06;5045028;28;20063;-83
2023/03/11 09:51:42;;;;;;;3.33;2.55;;;;;;;3.77;91.86;99698.38;5021874;28;20049;-83
2023/03/11 09:54:12;;;;;;;5.83;2.87;;;;;;;3.83;96.21;99703.56;5022346;28;20036;-83
2023/03/11 09:56:41;;;;;;;3.80;2.43;;;;;;;3.81;97.63;99704.47;5019550;28;20046;-82
2023/03/11 09:59:17;;;;;;;5.87;2.63;;;;;;;3.49;95.99;99717.78;5008957;28;20072;-83
2023/03/11 10:01:45;;;;;;;3.40;2.83;;;;;;;3.64;100.00;99710.69;5031831;28;20033;-82
2023/03/11 10:04:14;;;;;;;4.53;2.53;;;;;;;3.04;97.66;99717.19;5022084;28;20063;-82
2023/03/11 10:06:43;;;;;;;4.00;2.80;;;;;;;3.30;100.00;99725.72;5043907;28;20037;-82
2023/03/11 10:09:40;;;;;;;3.13;2.30;;;;;;;4.10;97.52;99718.13;4993121;28;20053;-82
2023/03/11 10:12:18;;;;;;;4.77;2.90;;;;;;;4.39;98.98;99719.59;5007737;28;20710;-82
2023/03/11 10:15:04;;;;;;;4.27;2.33;;;;;;;4.79;87.11;99720.00;5023248;28;20037;-82
2023/03/11 10:17:51;;;;;;;3.20;2.10;;;;;;;4.63;94.23;99724.56;5032419;28;20099;-82
2023/03/11 10:21:05;;;;;;;4.63;2.00;;;;;;;3.96;91.26;99740.94;5046026;28;20116;-81
2023/03/11 10:23:56;;;;;;;3.10;2.27;;;;;;;3.63;94.23;99739.44;4990804;28;20457;-80
2023/03/11 10:26:44;;;;;;;3.13;1.97;;;;;;;3.45;97.00;99740.44;5030387;28;20119;-80
2023/03/11 10:29:49;;;;;;;4.23;2.60;;;;;;;3.78;99.87;99744.53;5031758;28;20053;-81
2023/03/11 10:32:24;;;;;;;4.40;2.90;;;;;;;4.13;95.02;99754.72;5023318;28;20048;-80
2023/03/11 10:35:04;;;;;;;4.10;2.43;;;;;;;4.50;91.96;99747.38;5005665;28;20053;-80
2023/03/11 10:37:38;;;;;;;5.50;2.47;;;;;;;4.87;89.29;99746.94;5020528;28;20072;-82
2023/03/11 10:40:39;;;;;;;3.95;2.38;;;;;;;4.87;91.43;99752.19;5020093;28;20048;-80
2023/03/11 10:43:17;;;;;;;3.23;2.57;;;;;;;4.85;94.91;99756.56;5023144;28;20051;-80
2023/03/11 10:45:47;;;;;;;9.80;5.17;;;;;;;5.13;89.35;99764.06;5034762;28;20144;-81
2023/03/11 10:48:16;;;;;;;5.10;3.93;;;;;;;5.26;86.68;99760.44;5019332;28;20155;-82
2023/03/11 10:51:02;;;;;;;3.80;2.20;;;;;;;5.48;86.80;99763.63;5025448;28;20147;-81
2023/03/11 10:53:29;;;;;;;3.23;2.33;;;;;;;4.67;79.95;99775.09;5008236;28;20047;-81
2023/03/11 10:55:58;;;;;;;3.87;2.10;;;;;;;3.80;83.05;99766.31;5013379;28;20063;-81
2023/03/11 10:58:27;;;;;;;3.30;1.80;;;;;;;4.46;84.27;99779.69;5010962;28;20037;-81
2023/03/11 11:01:09;;;;;;;3.03;2.33;;;;;;;4.05;84.55;99776.56;5005623;28;20037;-82
2023/03/11 11:03:41;;;;;;;3.77;2.20;;;;;;;4.41;94.46;99778.84;5034262;28;20120;-81
2023/03/11 11:06:25;;;;;;;2.23;2.03;;;;;;;4.75;89.78;99774.13;5038609;28;20123;-81
2023/03/11 11:09:10;;;;;;;3.15;2.05;;;;;;;4.06;89.41;99781.78;5002712;28;20307;-80
2023/03/11 11:11:38;;;;;;;2.87;2.10;;;;;;;3.59;93.66;99779.50;5035587;28;20106;-80
2023/03/11 11:14:05;;;;;;;5.17;3.70;;;;;;;3.17;98.09;99802.34;5019688;28;20052;-81
2023/03/11 11:16:33;;;;;;;3.40;2.77;;;;;;;3.29;100.00;99783.16;5031426;28;20038;-82
2023/03/11 11:19:07;;;;;;;3.27;2.50;;;;;;;3.72;100.00;99801.19;5016428;28;20032;-82
2023/03/11 11:21:39;;;;;;;5.93;4.10;;;;;;;3.72;100.00;99798.59;4986528;28;20048;-80
2023/03/11 11:24:19;;;;;;;4.47;2.47;;;;;;;3.47;100.00;99792.66;5009752;28;20030;-81
2023/03/11 11:27:22;;;;;;;5.00;2.33;;;;;;;3.26;98.32;99801.44;5035874;28;20481;-81
2023/03/11 11:30:07;;;;;;;3.47;2.50;;;;;;;3.18;100.00;99801.47;4991124;28;20455;-82
2023/03/11 11:32:35;;;;;;;3.77;1.97;;;;;;;2.93;100.00;99803.31;5039933;28;20639;-83
2023/03/11 11:35:13;;;;;;;2.53;2.00;;;;;;;2.78;100.00;99791.19;5018102;28;20049;-80
2023/03/11 11:37:54;;;;;;;3.43;2.40;;;;;;;3.19;100.00;99797.13;5021947;28;20075;-81
2023/03/11 11:40:28;;;;;;;3.07;2.20;;;;;;;3.62;100.00;99796.03;5001401;28;20060;-83
2023/03/11 11:42:59;;;;;;;3.25;2.08;;;;;;;3.84;100.00;99793.25;5021227;28;20048;-82